sensor_id;sensor_type;location;lat;lon;timestamp;temperature;humidity
8643;DHT22;4359;49.358;11.256;2024-01-07T00:02:23;2.00;99.90
8643;DHT22;4359;49.358;11.256;2024-01-07T00:04:49;2.00;99.90
8643;DHT22;4359;49.358;11.256;2024-01-07T00:07:14;2.00;99.90
8643;DHT22;4359;49.358;11.256;2024-01-07T00:09:40;2.00;99.90
8643;DHT22;4359;49.358;11.256;2024-01-07T00:12:05;2.00;99.90
8643;DHT22;4359;49.358;11.256;2024-01-07T00:14:31;2.00;99.90
8643;DHT22;4359;49.358;11.256;2024-01-07T00:16:57;2.00;99.90
8643;DHT22;4359;49.358;11.256;2024-01-07T00:19:22;2.00;99.90
8643;DHT22;4359;49.358;11.256;2024-01-07T00:21:48;2.00;99.90
8643;DHT22;4359;49.358;11.256;2024-01-07T00:24:13;2.00;99.90
8643;DHT22;4359;49.358;11.256;2024-01-07T00:26:39;2.00;99.90
8643;DHT22;4359;49.358;11.256;2024-01-07T00:29:04;2.00;99.90
8643;DHT22;4359;49.358;11.256;2024-01-07T00:31:30;1.90;99.90
8643;DHT22;4359;49.358;11.256;2024-01-07T00:33:55;1.90;99.90
8643;DHT22;4359;49.358;11.256;2024-01-07T00:36:21;1.90;99.90
8643;DHT22;4359;49.358;11.256;2024-01-07T00:38:46;2.00;99.90
8643;DHT22;4359;49.358;11.256;2024-01-07T00:41:12;1.90;99.90
8643;DHT22;4359;49.358;11.256;2024-01-07T00:43:38;1.90;99.90
8643;DHT22;4359;49.358;11.256;2024-01-07T00:46:04;1.90;99.90
8643;DHT22;4359;49.358;11.256;2024-01-07T00:48:29;1.80;99.90
8643;DHT22;4359;49.358;11.256;2024-01-07T00:50:55;1.80;99.90
8643;DHT22;4359;49.358;11.256;2024-01-07T00:53:20;1.80;99.90
8643;DHT22;4359;49.358;11.256;2024-01-07T00:55:46;1.80;99.90
8643;DHT22;4359;49.358;11.256;2024-01-07T00:58:11;1.80;99.90
8643;DHT22;4359;49.358;11.256;2024-01-07T01:00:37;1.80;99.90
8643;DHT22;4359;49.358;11.256;2024-01-07T01:03:02;1.80;99.90
8643;DHT22;4359;49.358;11.256;2024-01-07T01:05:28;1.80;99.90
8643;DHT22;4359;49.358;11.256;2024-01-07T01:07:53;1.90;99.90
8643;DHT22;4359;49.358;11.256;2024-01-07T01:10:19;1.90;99.90
8643;DHT22;4359;49.358;11.256;2024-01-07T01:12:45;1.90;99.90
8643;DHT22;4359;49.358;11.256;2024-01-07T01:15:10;1.90;99.90
8643;DHT22;4359;49.358;11.256;2024-01-07T01:17:36;1.90;99.90
8643;DHT22;4359;49.358;11.256;2024-01-07T01:20:02;1.90;99.90
8643;DHT22;4359;49.358;11.256;2024-01-07T01:22:28;1.90;99.90
8643;DHT22;4359;49.358;11.256;2024-01-07T01:24:53;1.90;99.90
8643;DHT22;4359;49.358;11.256;2024-01-07T01:27:19;1.90;99.90
8643;DHT22;4359;49.358;11.256;2024-01-07T01:29:44;1.90;99.90
8643;DHT22;4359;49.358;11.256;2024-01-07T01:32:10;1.90;99.90
8643;DHT22;4359;49.358;11.256;2024-01-07T01:34:36;1.90;99.90
8643;DHT22;4359;49.358;11.256;2024-01-07T01:37:01;1.90;99.90
8643;DHT22;4359;49.358;11.256;2024-01-07T01:39:28;1.90;99.90
8643;DHT22;4359;49.358;11.256;2024-01-07T01:41:54;1.90;99.90
8643;DHT22;4359;49.358;11.256;2024-01-07T01:44:19;1.90;99.90
8643;DHT22;4359;49.358;11.256;2024-01-07T01:46:45;1.90;99.90
8643;DHT22;4359;49.358;11.256;2024-01-07T01:49:12;1.90;99.90
8643;DHT22;4359;49.358;11.256;2024-01-07T01:51:37;1.80;99.90
8643;DHT22;4359;49.358;11.256;2024-01-07T01:54:03;1.80;99.90
8643;DHT22;4359;49.358;11.256;2024-01-07T01:56:28;1.80;99.90
8643;DHT22;4359;49.358;11.256;2024-01-07T01:58:54;1.80;99.90
8643;DHT22;4359;49.358;11.256;2024-01-07T02:01:20;1.80;99.90
8643;DHT22;4359;49.358;11.256;2024-01-07T02:03:46;1.80;99.90
8643;DHT22;4359;49.358;11.256;2024-01-07T02:06:11;1.80;99.90
8643;DHT22;4359;49.358;11.256;2024-01-07T02:08:38;1.80;99.90
8643;DHT22;4359;49.358;11.256;2024-01-07T02:11:17;1.80;99.90
8643;DHT22;4359;49.358;11.256;2024-01-07T02:13:43;1.70;99.90
8643;DHT22;4359;49.358;11.256;2024-01-07T02:16:08;1.70;99.90
8643;DHT22;4359;49.358;11.256;2024-01-07T02:18:34;1.80;99.90
8643;DHT22;4359;49.358;11.256;2024-01-07T02:21:00;1.70;99.90
8643;DHT22;4359;49.358;11.256;2024-01-07T02:23:25;1.80;99.90
8643;DHT22;4359;49.358;11.256;2024-01-07T02:25:51;1.80;99.90
8643;DHT22;4359;49.358;11.256;2024-01-07T02:28:16;1.80;99.90
8643;DHT22;4359;49.358;11.256;2024-01-07T02:30:42;1.80;99.90
8643;DHT22;4359;49.358;11.256;2024-01-07T02:33:08;1.80;99.90
8643;DHT22;4359;49.358;11.256;2024-01-07T02:35:33;1.80;99.90
8643;DHT22;4359;49.358;11.256;2024-01-07T02:37:59;1.80;99.90
8643;DHT22;4359;49.358;11.256;2024-01-07T02:40:24;1.80;99.90
8643;DHT22;4359;49.358;11.256;2024-01-07T02:42:50;1.80;99.90
8643;DHT22;4359;49.358;11.256;2024-01-07T02:45:15;1.80;99.90
8643;DHT22;4359;49.358;11.256;2024-01-07T02:47:41;1.80;99.90
8643;DHT22;4359;49.358;11.256;2024-01-07T02:50:07;1.90;99.90
8643;DHT22;4359;49.358;11.256;2024-01-07T02:52:32;2.00;99.90
8643;DHT22;4359;49.358;11.256;2024-01-07T02:54:58;2.10;99.90
8643;DHT22;4359;49.358;11.256;2024-01-07T02:57:24;2.20;99.90
8643;DHT22;4359;49.358;11.256;2024-01-07T02:59:50;2.20;99.90
8643;DHT22;4359;49.358;11.256;2024-01-07T03:02:16;2.30;99.90
8643;DHT22;4359;49.358;11.256;2024-01-07T03:04:42;2.30;99.90
8643;DHT22;4359;49.358;11.256;2024-01-07T03:07:08;2.40;99.90
8643;DHT22;4359;49.358;11.256;2024-01-07T03:09:33;2.40;99.90
8643;DHT22;4359;49.358;11.256;2024-01-07T03:11:59;2.40;99.90
8643;DHT22;4359;49.358;11.256;2024-01-07T03:14:25;2.50;99.90
8643;DHT22;4359;49.358;11.256;2024-01-07T03:16:52;2.60;99.90
8643;DHT22;4359;49.358;11.256;2024-01-07T03:19:17;2.60;99.90
8643;DHT22;4359;49.358;11.256;2024-01-07T03:21:43;2.50;99.90
8643;DHT22;4359;49.358;11.256;2024-01-07T03:24:08;2.50;99.90
8643;DHT22;4359;49.358;11.256;2024-01-07T03:26:34;2.60;99.90
8643;DHT22;4359;49.358;11.256;2024-01-07T03:28:59;2.60;99.90
8643;DHT22;4359;49.358;11.256;2024-01-07T03:31:26;2.60;99.90
8643;DHT22;4359;49.358;11.256;2024-01-07T03:33:51;2.50;99.90
8643;DHT22;4359;49.358;11.256;2024-01-07T03:36:17;2.60;99.90
8643;DHT22;4359;49.358;11.256;2024-01-07T03:38:42;2.60;99.90
8643;DHT22;4359;49.358;11.256;2024-01-07T03:41:08;2.50;99.90
8643;DHT22;4359;49.358;11.256;2024-01-07T03:43:34;2.50;99.90
8643;DHT22;4359;49.358;11.256;2024-01-07T03:45:59;2.50;99.90
8643;DHT22;4359;49.358;11.256;2024-01-07T03:48:25;2.50;99.90
8643;DHT22;4359;49.358;11.256;2024-01-07T03:50:51;2.50;99.90
8643;DHT22;4359;49.358;11.256;2024-01-07T03:53:18;2.50;99.90
8643;DHT22;4359;49.358;11.256;2024-01-07T03:55:44;2.60;99.90
8643;DHT22;4359;49.358;11.256;2024-01-07T03:58:09;2.50;99.90
8643;DHT22;4359;49.358;11.256;2024-01-07T04:00:35;2.50;99.90
8643;DHT22;4359;49.358;11.256;2024-01-07T04:03:01;2.50;99.90
8643;DHT22;4359;49.358;11.256;2024-01-07T04:05:27;2.60;99.90
8643;DHT22;4359;49.358;11.256;2024-01-07T04:07:54;2.60;99.90
8643;DHT22;4359;49.358;11.256;2024-01-07T04:10:20;2.50;99.90
8643;DHT22;4359;49.358;11.256;2024-01-07T04:12:45;2.50;99.90
8643;DHT22;4359;49.358;11.256;2024-01-07T04:15:11;2.50;99.90
8643;DHT22;4359;49.358;11.256;2024-01-07T04:17:37;2.50;99.90
8643;DHT22;4359;49.358;11.256;2024-01-07T04:20:03;2.50;99.90
8643;DHT22;4359;49.358;11.256;2024-01-07T04:22:29;2.50;99.90
8643;DHT22;4359;49.358;11.256;2024-01-07T04:24:54;2.60;99.90
8643;DHT22;4359;49.358;11.256;2024-01-07T04:27:20;2.50;99.90
8643;DHT22;4359;49.358;11.256;2024-01-07T04:29:45;2.50;99.90
8643;DHT22;4359;49.358;11.256;2024-01-07T04:32:11;2.50;99.90
8643;DHT22;4359;49.358;11.256;2024-01-07T04:34:36;2.60;99.90
8643;DHT22;4359;49.358;11.256;2024-01-07T04:37:02;2.50;99.90
8643;DHT22;4359;49.358;11.256;2024-01-07T04:39:27;2.50;99.90
8643;DHT22;4359;49.358;11.256;2024-01-07T04:41:53;2.50;99.90
8643;DHT22;4359;49.358;11.256;2024-01-07T04:44:18;2.50;99.90
8643;DHT22;4359;49.358;11.256;2024-01-07T04:46:44;2.50;99.90
8643;DHT22;4359;49.358;11.256;2024-01-07T04:49:09;2.40;99.90
8643;DHT22;4359;49.358;11.256;2024-01-07T04:51:35;2.40;99.90
8643;DHT22;4359;49.358;11.256;2024-01-07T04:54:03;2.40;99.90
8643;DHT22;4359;49.358;11.256;2024-01-07T04:56:29;2.40;99.90
8643;DHT22;4359;49.358;11.256;2024-01-07T04:58:54;2.40;99.90
8643;DHT22;4359;49.358;11.256;2024-01-07T05:01:20;2.40;99.90
8643;DHT22;4359;49.358;11.256;2024-01-07T05:03:46;2.30;99.90
8643;DHT22;4359;49.358;11.256;2024-01-07T05:06:12;2.40;99.90
8643;DHT22;4359;49.358;11.256;2024-01-07T05:08:40;2.40;99.90
8643;DHT22;4359;49.358;11.256;2024-01-07T05:11:06;2.40;99.90
8643;DHT22;4359;49.358;11.256;2024-01-07T05:13:32;2.40;99.90
8643;DHT22;4359;49.358;11.256;2024-01-07T05:15:57;2.40;99.90
8643;DHT22;4359;49.358;11.256;2024-01-07T05:18:23;2.30;99.90
8643;DHT22;4359;49.358;11.256;2024-01-07T05:20:49;2.30;99.90
8643;DHT22;4359;49.358;11.256;2024-01-07T05:23:15;2.40;99.90
8643;DHT22;4359;49.358;11.256;2024-01-07T05:25:43;2.30;99.90
8643;DHT22;4359;49.358;11.256;2024-01-07T05:28:10;2.30;99.90
8643;DHT22;4359;49.358;11.256;2024-01-07T05:30:35;2.30;99.90
8643;DHT22;4359;49.358;11.256;2024-01-07T05:33:01;2.30;99.90
8643;DHT22;4359;49.358;11.256;2024-01-07T05:35:27;2.30;99.90
8643;DHT22;4359;49.358;11.256;2024-01-07T05:37:52;2.20;99.90
8643;DHT22;4359;49.358;11.256;2024-01-07T05:40:18;2.10;99.90
8643;DHT22;4359;49.358;11.256;2024-01-07T05:42:43;2.10;99.90
8643;DHT22;4359;49.358;11.256;2024-01-07T05:45:09;2.00;99.90
8643;DHT22;4359;49.358;11.256;2024-01-07T05:47:35;2.00;99.90
8643;DHT22;4359;49.358;11.256;2024-01-07T05:50:00;2.00;99.90
8643;DHT22;4359;49.358;11.256;2024-01-07T05:52:27;2.00;99.90
8643;DHT22;4359;49.358;11.256;2024-01-07T05:54:52;2.00;99.90
8643;DHT22;4359;49.358;11.256;2024-01-07T05:57:18;2.00;99.90
8643;DHT22;4359;49.358;11.256;2024-01-07T05:59:44;1.90;99.90
8643;DHT22;4359;49.358;11.256;2024-01-07T06:02:09;1.90;99.90
8643;DHT22;4359;49.358;11.256;2024-01-07T06:04:36;1.90;99.90
8643;DHT22;4359;49.358;11.256;2024-01-07T06:07:02;1.90;99.90
8643;DHT22;4359;49.358;11.256;2024-01-07T06:09:28;1.80;99.90
8643;DHT22;4359;49.358;11.256;2024-01-07T06:11:53;1.80;99.90
8643;DHT22;4359;49.358;11.256;2024-01-07T06:14:19;1.80;99.90
8643;DHT22;4359;49.358;11.256;2024-01-07T06:16:44;1.70;99.90
8643;DHT22;4359;49.358;11.256;2024-01-07T06:19:09;1.70;99.90
8643;DHT22;4359;49.358;11.256;2024-01-07T06:21:35;1.70;99.90
8643;DHT22;4359;49.358;11.256;2024-01-07T06:24:00;1.80;99.90
8643;DHT22;4359;49.358;11.256;2024-01-07T06:26:26;1.70;99.90
8643;DHT22;4359;49.358;11.256;2024-01-07T06:28:52;1.70;99.90
8643;DHT22;4359;49.358;11.256;2024-01-07T06:31:17;1.70;99.90
8643;DHT22;4359;49.358;11.256;2024-01-07T06:33:43;1.70;99.90
8643;DHT22;4359;49.358;11.256;2024-01-07T06:36:08;1.60;99.90
8643;DHT22;4359;49.358;11.256;2024-01-07T06:38:34;1.60;99.90
8643;DHT22;4359;49.358;11.256;2024-01-07T06:40:59;1.60;99.90
8643;DHT22;4359;49.358;11.256;2024-01-07T06:43:29;1.60;99.90
8643;DHT22;4359;49.358;11.256;2024-01-07T06:45:54;1.80;99.90
8643;DHT22;4359;49.358;11.256;2024-01-07T06:48:20;1.60;99.90
8643;DHT22;4359;49.358;11.256;2024-01-07T06:50:46;1.50;99.90
8643;DHT22;4359;49.358;11.256;2024-01-07T06:53:12;1.50;99.90
8643;DHT22;4359;49.358;11.256;2024-01-07T06:55:37;1.50;99.90
8643;DHT22;4359;49.358;11.256;2024-01-07T06:58:03;1.50;99.90
8643;DHT22;4359;49.358;11.256;2024-01-07T07:00:28;1.50;99.90
8643;DHT22;4359;49.358;11.256;2024-01-07T07:02:54;1.50;99.90
8643;DHT22;4359;49.358;11.256;2024-01-07T07:05:19;1.50;99.90
8643;DHT22;4359;49.358;11.256;2024-01-07T07:07:45;1.50;99.90
8643;DHT22;4359;49.358;11.256;2024-01-07T07:10:10;1.50;99.90
8643;DHT22;4359;49.358;11.256;2024-01-07T07:12:36;1.50;99.90
8643;DHT22;4359;49.358;11.256;2024-01-07T07:15:02;1.40;99.90
8643;DHT22;4359;49.358;11.256;2024-01-07T07:17:27;1.40;99.90
8643;DHT22;4359;49.358;11.256;2024-01-07T07:19:53;1.40;99.90
8643;DHT22;4359;49.358;11.256;2024-01-07T07:22:18;1.50;99.90
8643;DHT22;4359;49.358;11.256;2024-01-07T07:24:44;1.50;99.90
8643;DHT22;4359;49.358;11.256;2024-01-07T07:27:09;1.50;99.90
8643;DHT22;4359;49.358;11.256;2024-01-07T07:29:35;1.40;99.90
8643;DHT22;4359;49.358;11.256;2024-01-07T07:32:00;1.40;99.90
8643;DHT22;4359;49.358;11.256;2024-01-07T07:34:26;1.40;99.90
8643;DHT22;4359;49.358;11.256;2024-01-07T07:36:51;1.40;99.90
8643;DHT22;4359;49.358;11.256;2024-01-07T07:39:17;1.50;99.90
8643;DHT22;4359;49.358;11.256;2024-01-07T07:41:42;1.50;99.90
8643;DHT22;4359;49.358;11.256;2024-01-07T07:44:08;1.40;99.90
8643;DHT22;4359;49.358;11.256;2024-01-07T07:46:33;1.40;99.90
8643;DHT22;4359;49.358;11.256;2024-01-07T07:48:59;1.50;99.90
8643;DHT22;4359;49.358;11.256;2024-01-07T07:51:26;1.40;99.90
8643;DHT22;4359;49.358;11.256;2024-01-07T07:53:51;1.40;99.90
8643;DHT22;4359;49.358;11.256;2024-01-07T07:56:17;1.40;99.90
8643;DHT22;4359;49.358;11.256;2024-01-07T07:58:42;1.40;99.90
8643;DHT22;4359;49.358;11.256;2024-01-07T08:01:08;1.50;99.90
8643;DHT22;4359;49.358;11.256;2024-01-07T08:03:33;1.40;99.90
8643;DHT22;4359;49.358;11.256;2024-01-07T08:06:00;1.40;99.90
8643;DHT22;4359;49.358;11.256;2024-01-07T08:08:25;1.40;99.90
8643;DHT22;4359;49.358;11.256;2024-01-07T08:10:51;1.40;99.90
8643;DHT22;4359;49.358;11.256;2024-01-07T08:13:16;1.40;99.90
8643;DHT22;4359;49.358;11.256;2024-01-07T08:15:42;1.40;99.90
8643;DHT22;4359;49.358;11.256;2024-01-07T08:18:07;1.40;99.90
8643;DHT22;4359;49.358;11.256;2024-01-07T08:20:33;1.40;99.90
8643;DHT22;4359;49.358;11.256;2024-01-07T08:22:58;1.40;99.90
8643;DHT22;4359;49.358;11.256;2024-01-07T08:25:25;1.30;99.90
8643;DHT22;4359;49.358;11.256;2024-01-07T08:27:51;1.20;99.90
8643;DHT22;4359;49.358;11.256;2024-01-07T08:30:16;1.20;99.90
8643;DHT22;4359;49.358;11.256;2024-01-07T08:32:42;1.20;99.90
8643;DHT22;4359;49.358;11.256;2024-01-07T08:35:07;1.20;99.90
8643;DHT22;4359;49.358;11.256;2024-01-07T08:37:33;1.10;99.90
8643;DHT22;4359;49.358;11.256;2024-01-07T08:39:58;1.20;99.90
8643;DHT22;4359;49.358;11.256;2024-01-07T08:42:24;1.20;99.90
8643;DHT22;4359;49.358;11.256;2024-01-07T08:44:50;1.20;99.90
8643;DHT22;4359;49.358;11.256;2024-01-07T08:47:15;1.20;99.90
8643;DHT22;4359;49.358;11.256;2024-01-07T08:49:41;1.20;99.90
8643;DHT22;4359;49.358;11.256;2024-01-07T08:52:06;1.20;99.90
8643;DHT22;4359;49.358;11.256;2024-01-07T08:54:32;1.20;99.90
8643;DHT22;4359;49.358;11.256;2024-01-07T08:56:58;1.10;99.90
8643;DHT22;4359;49.358;11.256;2024-01-07T08:59:24;1.10;99.90
8643;DHT22;4359;49.358;11.256;2024-01-07T09:01:49;1.00;99.90
8643;DHT22;4359;49.358;11.256;2024-01-07T09:04:15;1.20;99.90
8643;DHT22;4359;49.358;11.256;2024-01-07T09:06:43;1.10;99.90
8643;DHT22;4359;49.358;11.256;2024-01-07T09:09:09;1.00;99.90
8643;DHT22;4359;49.358;11.256;2024-01-07T09:11:34;1.00;99.90
8643;DHT22;4359;49.358;11.256;2024-01-07T09:14:01;1.00;99.90
8643;DHT22;4359;49.358;11.256;2024-01-07T09:16:28;0.90;99.90
8643;DHT22;4359;49.358;11.256;2024-01-07T09:18:54;0.90;99.90
8643;DHT22;4359;49.358;11.256;2024-01-07T09:21:19;0.90;99.90
8643;DHT22;4359;49.358;11.256;2024-01-07T09:23:45;0.90;99.90
8643;DHT22;4359;49.358;11.256;2024-01-07T09:26:10;0.90;99.90
8643;DHT22;4359;49.358;11.256;2024-01-07T09:28:36;0.90;99.90
8643;DHT22;4359;49.358;11.256;2024-01-07T09:31:01;1.00;99.90
8643;DHT22;4359;49.358;11.256;2024-01-07T09:33:27;1.00;99.90
8643;DHT22;4359;49.358;11.256;2024-01-07T09:35:53;1.00;99.90
8643;DHT22;4359;49.358;11.256;2024-01-07T09:38:21;0.90;99.90
8643;DHT22;4359;49.358;11.256;2024-01-07T09:40:46;0.90;99.90
8643;DHT22;4359;49.358;11.256;2024-01-07T09:43:12;0.90;99.90
8643;DHT22;4359;49.358;11.256;2024-01-07T09:45:38;0.90;99.90
8643;DHT22;4359;49.358;11.256;2024-01-07T09:48:05;0.80;99.90
8643;DHT22;4359;49.358;11.256;2024-01-07T09:50:30;0.80;99.90
8643;DHT22;4359;49.358;11.256;2024-01-07T09:52:56;0.70;99.90
8643;DHT22;4359;49.358;11.256;2024-01-07T09:55:30;0.80;99.90
8643;DHT22;4359;49.358;11.256;2024-01-07T09:57:57;0.70;99.90
8643;DHT22;4359;49.358;11.256;2024-01-07T10:00:22;0.70;99.90
8643;DHT22;4359;49.358;11.256;2024-01-07T10:02:48;0.60;99.90
8643;DHT22;4359;49.358;11.256;2024-01-07T10:05:13;0.50;99.90
8643;DHT22;4359;49.358;11.256;2024-01-07T10:07:39;0.50;99.90
8643;DHT22;4359;49.358;11.256;2024-01-07T10:10:12;0.60;99.90
8643;DHT22;4359;49.358;11.256;2024-01-07T10:12:37;0.50;99.90
8643;DHT22;4359;49.358;11.256;2024-01-07T10:15:03;0.50;99.90
8643;DHT22;4359;49.358;11.256;2024-01-07T10:17:29;0.50;99.90
8643;DHT22;4359;49.358;11.256;2024-01-07T10:19:54;0.60;99.90
8643;DHT22;4359;49.358;11.256;2024-01-07T10:22:20;0.50;99.90
8643;DHT22;4359;49.358;11.256;2024-01-07T10:24:45;0.50;99.90
8643;DHT22;4359;49.358;11.256;2024-01-07T10:27:11;0.50;99.90
8643;DHT22;4359;49.358;11.256;2024-01-07T10:29:37;0.60;99.90
8643;DHT22;4359;49.358;11.256;2024-01-07T10:32:03;0.50;99.90
8643;DHT22;4359;49.358;11.256;2024-01-07T10:34:36;0.50;99.90
8643;DHT22;4359;49.358;11.256;2024-01-07T10:37:02;0.60;99.90
8643;DHT22;4359;49.358;11.256;2024-01-07T10:39:28;0.60;99.90
8643;DHT22;4359;49.358;11.256;2024-01-07T10:41:57;0.60;99.90
8643;DHT22;4359;49.358;11.256;2024-01-07T10:44:26;0.50;99.90
8643;DHT22;4359;49.358;11.256;2024-01-07T10:46:55;0.60;99.90
8643;DHT22;4359;49.358;11.256;2024-01-07T10:49:24;0.50;99.90
8643;DHT22;4359;49.358;11.256;2024-01-07T10:52:06;0.50;99.90
8643;DHT22;4359;49.358;11.256;2024-01-07T10:54:32;0.50;99.90
8643;DHT22;4359;49.358;11.256;2024-01-07T10:57:24;0.60;99.90
8643;DHT22;4359;49.358;11.256;2024-01-07T10:59:46;0.50;99.90
8643;DHT22;4359;49.358;11.256;2024-01-07T11:02:12;0.40;99.90
8643;DHT22;4359;49.358;11.256;2024-01-07T11:07:27;0.50;99.90
8643;DHT22;4359;49.358;11.256;2024-01-07T11:10:12;0.50;99.90
8643;DHT22;4359;49.358;11.256;2024-01-07T11:12:38;0.40;99.90
8643;DHT22;4359;49.358;11.256;2024-01-07T11:15:04;0.50;99.90
8643;DHT22;4359;49.358;11.256;2024-01-07T11:20:02;0.60;99.90
8643;DHT22;4359;49.358;11.256;2024-01-07T11:22:27;0.60;99.90
8643;DHT22;4359;49.358;11.256;2024-01-07T11:24:57;0.50;99.90
8643;DHT22;4359;49.358;11.256;2024-01-07T11:27:23;0.50;99.90
8643;DHT22;4359;49.358;11.256;2024-01-07T11:32:30;0.40;99.90
8643;DHT22;4359;49.358;11.256;2024-01-07T11:34:58;0.40;99.90
8643;DHT22;4359;49.358;11.256;2024-01-07T11:37:24;0.50;99.90
8643;DHT22;4359;49.358;11.256;2024-01-07T11:39:51;0.40;99.90
8643;DHT22;4359;49.358;11.256;2024-01-07T11:42:17;0.40;99.90
8643;DHT22;4359;49.358;11.256;2024-01-07T11:44:51;0.50;99.90
8643;DHT22;4359;49.358;11.256;2024-01-07T11:47:17;0.40;99.90
8643;DHT22;4359;49.358;11.256;2024-01-07T11:49:43;0.50;99.90
8643;DHT22;4359;49.358;11.256;2024-01-07T11:52:09;0.60;99.90
8643;DHT22;4359;49.358;11.256;2024-01-07T11:54:38;0.60;99.90
8643;DHT22;4359;49.358;11.256;2024-01-07T11:57:04;0.50;99.90
8643;DHT22;4359;49.358;11.256;2024-01-07T11:59:30;0.50;99.90
8643;DHT22;4359;49.358;11.256;2024-01-07T12:01:55;0.50;99.90
8643;DHT22;4359;49.358;11.256;2024-01-07T12:04:21;0.60;99.90
8643;DHT22;4359;49.358;11.256;2024-01-07T12:06:48;0.50;99.90
8643;DHT22;4359;49.358;11.256;2024-01-07T12:09:13;0.40;99.90
8643;DHT22;4359;49.358;11.256;2024-01-07T12:11:39;0.40;99.90
8643;DHT22;4359;49.358;11.256;2024-01-07T12:14:06;0.40;99.90
8643;DHT22;4359;49.358;11.256;2024-01-07T12:16:32;0.40;99.90
8643;DHT22;4359;49.358;11.256;2024-01-07T12:18:58;0.30;99.90
8643;DHT22;4359;49.358;11.256;2024-01-07T12:21:23;0.30;99.90
8643;DHT22;4359;49.358;11.256;2024-01-07T12:23:50;0.40;99.90
8643;DHT22;4359;49.358;11.256;2024-01-07T12:26:19;0.30;99.90
8643;DHT22;4359;49.358;11.256;2024-01-07T12:28:45;0.30;99.90
8643;DHT22;4359;49.358;11.256;2024-01-07T12:31:17;0.40;99.90
8643;DHT22;4359;49.358;11.256;2024-01-07T12:33:42;0.40;99.90
8643;DHT22;4359;49.358;11.256;2024-01-07T12:36:08;0.30;99.90
8643;DHT22;4359;49.358;11.256;2024-01-07T12:38:36;0.40;99.90
8643;DHT22;4359;49.358;11.256;2024-01-07T12:41:02;0.20;99.90
8643;DHT22;4359;49.358;11.256;2024-01-07T12:43:28;0.30;99.90
8643;DHT22;4359;49.358;11.256;2024-01-07T12:45:53;0.20;99.90
8643;DHT22;4359;49.358;11.256;2024-01-07T12:48:20;0.20;99.90
8643;DHT22;4359;49.358;11.256;2024-01-07T12:50:46;0.30;99.90
8643;DHT22;4359;49.358;11.256;2024-01-07T12:53:11;0.30;99.90
8643;DHT22;4359;49.358;11.256;2024-01-07T12:55:37;0.30;99.90
8643;DHT22;4359;49.358;11.256;2024-01-07T12:58:02;0.30;99.90
8643;DHT22;4359;49.358;11.256;2024-01-07T13:00:28;0.20;99.90
8643;DHT22;4359;49.358;11.256;2024-01-07T13:02:56;0.30;99.90
8643;DHT22;4359;49.358;11.256;2024-01-07T13:05:22;0.30;99.90
8643;DHT22;4359;49.358;11.256;2024-01-07T13:07:48;0.20;99.90
8643;DHT22;4359;49.358;11.256;2024-01-07T13:10:15;0.20;99.90
8643;DHT22;4359;49.358;11.256;2024-01-07T13:12:40;0.20;99.90
8643;DHT22;4359;49.358;11.256;2024-01-07T13:15:06;0.10;99.90
8643;DHT22;4359;49.358;11.256;2024-01-07T13:17:32;0.00;99.90
8643;DHT22;4359;49.358;11.256;2024-01-07T13:20:01;0.00;99.90
8643;DHT22;4359;49.358;11.256;2024-01-07T13:22:26;0.00;99.90
8643;DHT22;4359;49.358;11.256;2024-01-07T13:24:52;0.10;99.90
8643;DHT22;4359;49.358;11.256;2024-01-07T13:27:19;0.00;99.90
8643;DHT22;4359;49.358;11.256;2024-01-07T13:29:46;0.10;99.90
8643;DHT22;4359;49.358;11.256;2024-01-07T13:32:12;0.10;99.90
8643;DHT22;4359;49.358;11.256;2024-01-07T13:34:40;0.20;99.90
8643;DHT22;4359;49.358;11.256;2024-01-07T13:37:05;0.30;99.90
8643;DHT22;4359;49.358;11.256;2024-01-07T13:39:31;0.20;99.90
8643;DHT22;4359;49.358;11.256;2024-01-07T13:41:56;0.20;99.90
8643;DHT22;4359;49.358;11.256;2024-01-07T13:44:23;0.20;99.90
8643;DHT22;4359;49.358;11.256;2024-01-07T13:46:48;0.20;99.90
8643;DHT22;4359;49.358;11.256;2024-01-07T13:49:15;0.30;99.90
8643;DHT22;4359;49.358;11.256;2024-01-07T13:51:41;0.20;99.90
8643;DHT22;4359;49.358;11.256;2024-01-07T13:54:07;0.20;99.90
8643;DHT22;4359;49.358;11.256;2024-01-07T13:56:34;0.10;99.90
8643;DHT22;4359;49.358;11.256;2024-01-07T13:59:02;0.10;99.90
8643;DHT22;4359;49.358;11.256;2024-01-07T14:01:28;0.20;99.90
8643;DHT22;4359;49.358;11.256;2024-01-07T14:03:54;0.20;99.90
8643;DHT22;4359;49.358;11.256;2024-01-07T14:06:20;0.10;99.90
8643;DHT22;4359;49.358;11.256;2024-01-07T14:08:46;0.10;99.90
8643;DHT22;4359;49.358;11.256;2024-01-07T14:11:12;0.00;99.90
8643;DHT22;4359;49.358;11.256;2024-01-07T14:13:37;0.00;99.90
8643;DHT22;4359;49.358;11.256;2024-01-07T14:16:03;-0.10;99.90
8643;DHT22;4359;49.358;11.256;2024-01-07T14:18:29;0.00;99.90
8643;DHT22;4359;49.358;11.256;2024-01-07T14:20:54;0.00;99.90
8643;DHT22;4359;49.358;11.256;2024-01-07T14:23:20;-0.10;99.90
8643;DHT22;4359;49.358;11.256;2024-01-07T14:25:45;-0.10;99.90
8643;DHT22;4359;49.358;11.256;2024-01-07T14:28:11;-0.20;99.90
8643;DHT22;4359;49.358;11.256;2024-01-07T14:30:36;-0.20;99.90
8643;DHT22;4359;49.358;11.256;2024-01-07T14:33:02;-0.20;99.90
8643;DHT22;4359;49.358;11.256;2024-01-07T14:35:27;-0.30;99.90
8643;DHT22;4359;49.358;11.256;2024-01-07T14:37:55;-0.20;99.90
8643;DHT22;4359;49.358;11.256;2024-01-07T14:40:23;-0.30;99.90
8643;DHT22;4359;49.358;11.256;2024-01-07T14:42:49;-0.30;99.90
8643;DHT22;4359;49.358;11.256;2024-01-07T14:45:14;-0.30;99.90
8643;DHT22;4359;49.358;11.256;2024-01-07T14:47:40;-0.30;99.90
8643;DHT22;4359;49.358;11.256;2024-01-07T14:50:05;-0.40;99.90
8643;DHT22;4359;49.358;11.256;2024-01-07T14:52:31;-0.40;99.90
8643;DHT22;4359;49.358;11.256;2024-01-07T14:54:57;-0.40;99.90
8643;DHT22;4359;49.358;11.256;2024-01-07T14:57:22;-0.40;99.90
8643;DHT22;4359;49.358;11.256;2024-01-07T14:59:48;-0.40;99.90
8643;DHT22;4359;49.358;11.256;2024-01-07T15:02:14;-0.40;99.90
8643;DHT22;4359;49.358;11.256;2024-01-07T15:04:39;-0.40;99.90
8643;DHT22;4359;49.358;11.256;2024-01-07T15:07:05;-0.50;99.90
8643;DHT22;4359;49.358;11.256;2024-01-07T15:09:30;-0.50;99.90
8643;DHT22;4359;49.358;11.256;2024-01-07T15:11:56;-0.60;99.90
8643;DHT22;4359;49.358;11.256;2024-01-07T15:14:22;-0.60;99.90
8643;DHT22;4359;49.358;11.256;2024-01-07T15:16:48;-0.50;99.90
8643;DHT22;4359;49.358;11.256;2024-01-07T15:19:19;-0.60;99.90
8643;DHT22;4359;49.358;11.256;2024-01-07T15:21:45;-0.70;99.90
8643;DHT22;4359;49.358;11.256;2024-01-07T15:24:10;-0.70;99.90
8643;DHT22;4359;49.358;11.256;2024-01-07T15:26:36;-0.70;99.90
8643;DHT22;4359;49.358;11.256;2024-01-07T15:29:03;-0.70;99.90
8643;DHT22;4359;49.358;11.256;2024-01-07T15:31:29;-0.70;99.90
8643;DHT22;4359;49.358;11.256;2024-01-07T15:33:55;-0.70;99.90
8643;DHT22;4359;49.358;11.256;2024-01-07T15:36:20;-0.70;99.90
8643;DHT22;4359;49.358;11.256;2024-01-07T15:38:45;-0.70;99.90
8643;DHT22;4359;49.358;11.256;2024-01-07T15:41:11;-0.70;99.90
8643;DHT22;4359;49.358;11.256;2024-01-07T15:43:37;-0.70;99.90
8643;DHT22;4359;49.358;11.256;2024-01-07T15:46:03;-0.70;99.90
8643;DHT22;4359;49.358;11.256;2024-01-07T15:48:29;-0.70;99.90
8643;DHT22;4359;49.358;11.256;2024-01-07T15:50:56;-0.70;99.90
8643;DHT22;4359;49.358;11.256;2024-01-07T15:53:23;-0.80;99.90
8643;DHT22;4359;49.358;11.256;2024-01-07T15:55:52;-0.80;99.90
8643;DHT22;4359;49.358;11.256;2024-01-07T15:58:18;-0.80;99.90
8643;DHT22;4359;49.358;11.256;2024-01-07T16:00:43;-0.70;99.90